createdAt,value
2018-04-24T00:00:32.552Z,64.11
2018-04-24T00:03:00.045Z,65.72
2018-04-24T00:05:27.526Z,66.16
2018-04-24T00:07:55.083Z,65.85
2018-04-24T00:10:22.572Z,66.00
2018-04-24T00:12:50.049Z,64.14
2018-04-24T00:15:17.583Z,63.54
2018-04-24T00:17:45.050Z,64.22
2018-04-24T00:20:12.552Z,62.61
2018-04-24T00:22:40.049Z,62.96
2018-04-24T00:25:07.555Z,63.08
2018-04-24T00:27:35.024Z,63.74
2018-04-24T00:30:02.515Z,63.67
2018-04-24T00:32:30.020Z,62.76
2018-04-24T00:34:57.500Z,63.37
2018-04-24T00:37:24.988Z,63.76
2018-04-24T00:39:52.464Z,63.79
2018-04-24T00:42:19.947Z,63.02
2018-04-24T00:44:47.436Z,62.39
2018-04-24T00:47:14.920Z,62.93
2018-04-24T00:49:42.411Z,62.42
2018-04-24T00:52:09.928Z,63.99
2018-04-24T00:54:37.413Z,64.08
2018-04-24T00:57:04.968Z,65.33
2018-04-24T00:59:32.443Z,63.98
2018-04-24T01:02:00.109Z,64.23
2018-04-24T01:04:27.675Z,63.89
2018-04-24T01:06:55.251Z,63.90
2018-04-24T01:09:22.717Z,62.55
2018-04-24T01:11:50.179Z,63.90
2018-04-24T01:14:17.667Z,64.61
2018-04-24T01:16:45.138Z,64.01
2018-04-24T01:19:12.602Z,65.70
2018-04-24T01:21:40.106Z,65.52
2018-04-24T01:24:07.633Z,64.98
2018-04-24T01:26:35.113Z,65.97
2018-04-24T01:29:02.604Z,66.41
2018-04-24T01:31:30.105Z,66.49
2018-04-24T01:33:57.608Z,66.10
2018-04-24T01:36:25.098Z,64.17
2018-04-24T01:38:52.583Z,65.62
2018-04-24T01:41:20.048Z,63.74
2018-04-24T01:43:47.542Z,64.24
2018-04-24T01:46:15.020Z,63.31
2018-04-24T01:48:42.683Z,63.51
2018-04-24T01:51:10.176Z,65.07
2018-04-24T01:53:37.671Z,65.45
2018-04-24T01:56:05.155Z,64.61
2018-04-24T01:58:32.634Z,65.12
2018-04-24T02:01:00.114Z,65.72
2018-04-24T02:03:27.905Z,65.46
2018-04-24T02:05:55.466Z,65.06
2018-04-24T02:08:22.957Z,66.64
2018-04-24T02:10:50.471Z,65.82
2018-04-24T02:13:18.101Z,64.88
2018-04-24T02:15:45.587Z,65.09
2018-04-24T02:18:13.050Z,65.01
2018-04-24T02:20:40.527Z,65.64
2018-04-24T02:23:08.039Z,64.55
2018-04-24T02:25:35.562Z,66.66
2018-04-24T02:28:03.050Z,65.84
2018-04-24T02:30:30.572Z,66.25
2018-04-24T02:32:58.049Z,63.76
2018-04-24T02:35:25.524Z,63.78
2018-04-24T02:37:52.994Z,64.01
2018-04-24T02:40:20.591Z,63.43
2018-04-24T02:42:47.986Z,64.31
2018-04-24T02:45:15.467Z,63.75
2018-04-24T02:47:42.965Z,63.31
2018-04-24T02:50:10.484Z,64.22
2018-04-24T02:52:38.028Z,63.46
2018-04-24T02:55:05.516Z,63.97
2018-04-24T02:57:33.085Z,62.57
2018-04-24T03:00:00.598Z,64.71
2018-04-24T03:02:28.069Z,63.44
2018-04-24T03:04:55.540Z,63.10
2018-04-24T03:07:23.034Z,61.95
2018-04-24T03:09:50.512Z,63.17
2018-04-24T03:12:17.975Z,61.17
2018-04-24T03:14:45.453Z,61.81
2018-04-24T03:17:12.910Z,62.03
2018-04-24T03:19:40.400Z,61.97
2018-04-24T03:22:07.882Z,60.97
2018-04-24T03:24:35.358Z,61.56
2018-04-24T03:27:02.841Z,61.82
2018-04-24T03:29:30.679Z,62.17
2018-04-24T03:31:58.151Z,64.21
2018-04-24T03:34:25.804Z,62.90
2018-04-24T03:36:53.294Z,63.72
2018-04-24T03:39:20.778Z,62.88
2018-04-24T03:41:48.392Z,65.80
2018-04-24T03:44:15.870Z,63.94
2018-04-24T03:46:43.353Z,64.90
2018-04-24T03:49:10.830Z,64.60
2018-04-24T03:51:38.335Z,64.64
2018-04-24T03:54:05.816Z,65.20
2018-04-24T03:56:33.302Z,64.45
2018-04-24T03:59:00.797Z,62.20
2018-04-24T04:01:28.278Z,63.74
2018-04-24T04:03:55.738Z,62.01
2018-04-24T04:06:23.228Z,63.32
2018-04-24T04:08:50.695Z,63.53
2018-04-24T04:11:18.302Z,63.10
2018-04-24T04:13:45.784Z,64.39
2018-04-24T04:16:13.259Z,64.86
2018-04-24T04:18:52.537Z,64.48
2018-04-24T04:21:31.825Z,63.89
2018-04-24T04:24:12.032Z,65.89
2018-04-24T04:26:39.500Z,65.25
2018-04-24T04:29:07.021Z,66.08
2018-04-24T04:31:34.505Z,63.61
2018-04-24T04:34:02.002Z,65.73
2018-04-24T04:36:29.478Z,64.93
2018-04-24T04:38:56.945Z,65.81
2018-04-24T04:41:24.494Z,64.17
2018-04-24T04:43:51.941Z,62.60
2018-04-24T04:46:19.707Z,63.44
2018-04-24T04:48:47.176Z,64.79
2018-04-24T04:51:14.646Z,62.70
2018-04-24T04:53:42.099Z,64.26
2018-04-24T04:56:10.126Z,65.52
2018-04-24T04:58:37.711Z,61.56
2018-04-24T05:01:05.211Z,64.19
2018-04-24T05:03:32.689Z,65.02
2018-04-24T05:06:00.252Z,65.89
2018-04-24T05:08:27.875Z,62.69
2018-04-24T05:10:55.359Z,63.63
2018-04-24T05:13:22.827Z,63.42
2018-04-24T05:15:51.818Z,65.50
2018-04-24T05:18:19.300Z,63.57
2018-04-24T05:20:46.787Z,62.52
2018-04-24T05:23:14.260Z,63.92
2018-04-24T05:25:41.732Z,62.98
2018-04-24T05:28:09.378Z,61.93
2018-04-24T05:30:37.052Z,61.11
2018-04-24T05:33:04.569Z,61.11
2018-04-24T05:35:32.151Z,61.74
2018-04-24T05:37:59.664Z,60.25
2018-04-24T05:40:27.303Z,61.06
2018-04-24T05:42:54.832Z,59.32
2018-04-24T05:45:22.439Z,60.80
2018-04-24T05:47:49.945Z,60.08
2018-04-24T05:50:17.423Z,59.24
2018-04-24T05:52:44.902Z,59.23
2018-04-24T05:55:12.381Z,59.91
2018-04-24T05:57:39.939Z,58.87
2018-04-24T06:00:07.397Z,59.09
2018-04-24T06:02:34.868Z,57.41
2018-04-24T06:05:02.362Z,56.99
2018-04-24T06:07:29.830Z,56.62
2018-04-24T06:09:57.312Z,56.07
2018-04-24T06:12:24.784Z,55.76
2018-04-24T06:14:52.276Z,57.29
2018-04-24T06:17:19.801Z,57.46
2018-04-24T06:19:47.294Z,56.68
2018-04-24T06:22:14.785Z,56.01
2018-04-24T06:24:42.255Z,56.51
2018-04-24T06:27:09.750Z,56.02
2018-04-24T06:29:37.235Z,56.73
2018-04-24T06:32:04.718Z,55.81
2018-04-24T06:34:32.185Z,55.59
2018-04-24T06:36:59.685Z,54.61
2018-04-24T06:39:27.171Z,53.73
2018-04-24T06:41:54.691Z,53.66
2018-04-24T06:44:22.177Z,53.38
2018-04-24T06:46:49.699Z,54.03
2018-04-24T06:49:17.181Z,55.02
2018-04-24T06:51:44.678Z,56.23
2018-04-24T06:54:12.197Z,55.75
2018-04-24T06:56:39.681Z,55.73
2018-04-24T06:59:07.173Z,54.85
2018-04-24T07:01:34.650Z,55.10
2018-04-24T07:04:02.149Z,54.71
2018-04-24T07:06:29.662Z,54.82
2018-04-24T07:08:57.125Z,53.92
2018-04-24T07:11:24.604Z,55.24
2018-04-24T07:13:52.357Z,53.83
2018-04-24T07:16:19.845Z,54.35
2018-04-24T07:18:47.333Z,54.46
2018-04-24T07:21:14.875Z,54.16
2018-04-24T07:23:42.468Z,50.87
2018-04-24T07:26:09.980Z,52.12
2018-04-24T07:28:37.557Z,52.25
2018-04-24T07:31:05.107Z,51.14
2018-04-24T07:33:32.659Z,50.25
2018-04-24T07:36:00.195Z,49.63
2018-04-24T07:38:27.715Z,51.48
2018-04-24T07:40:55.186Z,51.87
2018-04-24T07:43:22.652Z,51.06
2018-04-24T07:45:50.122Z,50.63
2018-04-24T07:48:17.680Z,50.17
2018-04-24T07:50:45.178Z,49.75
2018-04-24T07:53:12.775Z,49.32
2018-04-24T07:55:40.367Z,49.46
2018-04-24T07:58:08.066Z,50.19
2018-04-24T08:00:35.553Z,49.22
2018-04-24T08:03:03.207Z,49.00
2018-04-24T08:05:30.750Z,50.23
2018-04-24T08:07:58.224Z,48.78
2018-04-24T08:10:25.727Z,47.80
2018-04-24T08:12:53.463Z,51.10
2018-04-24T08:15:20.940Z,49.01
2018-04-24T08:17:48.426Z,48.75
2018-04-24T08:20:15.895Z,49.49
2018-04-24T08:22:43.436Z,47.07
2018-04-24T08:25:10.917Z,47.16
2018-04-24T08:27:38.468Z,46.64
2018-04-24T08:30:05.956Z,48.90
2018-04-24T08:32:33.475Z,44.81
2018-04-24T08:35:00.952Z,45.09
2018-04-24T08:37:29.084Z,46.03
2018-04-24T08:39:56.603Z,45.94
2018-04-24T08:42:24.319Z,44.61
2018-04-24T08:44:51.793Z,44.92
2018-04-24T08:47:19.309Z,45.80
2018-04-24T08:49:46.795Z,46.13
2018-04-24T08:52:14.273Z,47.54
2018-04-24T08:54:41.760Z,44.53
2018-04-24T08:57:10.508Z,45.67
2018-04-24T08:59:37.998Z,45.42
2018-04-24T09:02:06.574Z,42.86
2018-04-24T09:04:34.150Z,43.38
2018-04-24T09:07:03.709Z,48.12
2018-04-24T09:09:31.246Z,46.99
2018-04-24T09:11:58.844Z,45.07
2018-04-24T09:14:26.351Z,45.81
2018-04-24T09:16:53.830Z,44.61
2018-04-24T09:19:21.300Z,44.90
2018-04-24T09:21:48.799Z,44.38
2018-04-24T09:24:16.288Z,45.08
2018-04-24T09:26:43.784Z,45.76
2018-04-24T09:29:11.488Z,44.01
2018-04-24T09:31:43.914Z,43.25
2018-04-24T09:34:11.410Z,41.06
2018-04-24T09:36:38.904Z,42.85
2018-04-24T09:39:06.402Z,41.26
2018-04-24T09:41:33.906Z,42.42
2018-04-24T09:44:01.465Z,42.54
2018-04-24T09:46:28.921Z,41.46
2018-04-24T09:48:56.477Z,40.53
2018-04-24T09:51:24.028Z,44.28
2018-04-24T09:53:51.708Z,41.89
2018-04-24T09:56:19.190Z,43.81
2018-04-24T09:58:46.663Z,42.45
2018-04-24T10:01:14.127Z,39.68
2018-04-24T10:03:41.599Z,43.51
2018-04-24T10:06:09.065Z,40.71
2018-04-24T10:08:36.555Z,39.59
2018-04-24T10:11:04.049Z,38.43
2018-04-24T10:13:31.656Z,36.46
2018-04-24T10:15:59.125Z,37.07
2018-04-24T10:18:26.611Z,37.27
2018-04-24T10:20:54.072Z,34.45
2018-04-24T10:23:21.651Z,36.80
2018-04-24T10:25:49.137Z,35.95
2018-04-24T10:28:16.622Z,36.75
2018-04-24T10:30:44.121Z,38.71
2018-04-24T10:33:11.617Z,34.27
2018-04-24T10:35:39.263Z,37.10
2018-04-24T10:38:06.756Z,35.56
2018-04-24T10:40:34.256Z,33.40
2018-04-24T10:43:01.756Z,35.22
2018-04-24T10:45:29.275Z,34.22
2018-04-24T10:47:56.741Z,36.20
2018-04-24T10:50:24.298Z,34.03
2018-04-24T10:52:51.857Z,36.08
2018-04-24T10:55:19.390Z,37.07
2018-04-24T10:57:48.974Z,34.90
2018-04-24T11:00:16.490Z,37.62
2018-04-24T11:02:44.098Z,36.23
2018-04-24T11:05:11.577Z,34.97
2018-04-24T11:07:39.070Z,35.71
2018-04-24T11:10:06.554Z,36.39
2018-04-24T11:12:34.021Z,36.57
2018-04-24T11:15:01.569Z,36.24
2018-04-24T11:17:29.028Z,35.24
2018-04-24T11:19:56.501Z,35.53
2018-04-24T11:22:24.014Z,37.47
2018-04-24T11:24:51.498Z,35.68
2018-04-24T11:27:19.093Z,35.93
2018-04-24T11:29:46.582Z,35.42
2018-04-24T11:32:14.221Z,33.73
2018-04-24T11:34:41.685Z,34.35
2018-04-24T11:37:09.185Z,33.72
2018-04-24T11:39:36.672Z,35.76
2018-04-24T11:42:04.134Z,32.90
2018-04-24T11:44:31.628Z,31.90
2018-04-24T11:46:59.122Z,32.24
2018-04-24T11:49:26.600Z,30.12
2018-04-24T11:51:54.084Z,30.74
2018-04-24T11:54:21.553Z,31.45
2018-04-24T11:56:49.069Z,31.61
2018-04-24T11:59:16.531Z,29.99
2018-04-24T12:01:44.096Z,27.67
2018-04-24T12:04:11.596Z,29.89
2018-04-24T12:06:39.079Z,31.86
2018-04-24T12:09:06.625Z,31.63
2018-04-24T12:11:34.137Z,31.54
2018-04-24T12:14:01.607Z,29.99
2018-04-24T12:16:29.110Z,28.84
2018-04-24T12:18:56.711Z,29.27
2018-04-24T12:21:24.218Z,31.29
2018-04-24T12:23:52.573Z,30.96
2018-04-24T12:26:20.083Z,31.96
2018-04-24T12:28:47.549Z,33.07
2018-04-24T12:31:15.058Z,30.17
2018-04-24T12:33:42.545Z,30.50
2018-04-24T12:36:10.030Z,30.51
2018-04-24T12:38:37.539Z,29.79
2018-04-24T12:41:05.010Z,31.98
2018-04-24T12:43:32.499Z,30.44
2018-04-24T12:46:00.209Z,29.74
2018-04-24T12:48:27.697Z,28.56
2018-04-24T12:50:55.205Z,30.58
2018-04-24T12:53:22.820Z,28.69
2018-04-24T12:55:50.333Z,27.87
2018-04-24T12:58:17.797Z,28.77
2018-04-24T13:00:45.302Z,28.45
2018-04-24T13:03:12.774Z,29.67
2018-04-24T13:05:40.259Z,30.75
2018-04-24T13:08:07.797Z,26.92
2018-04-24T13:10:35.299Z,27.51
2018-04-24T13:13:02.828Z,26.60
2018-04-24T13:15:30.313Z,25.83
2018-04-24T13:17:57.798Z,24.98
2018-04-24T13:20:25.262Z,25.10
2018-04-24T13:22:53.436Z,24.12
2018-04-24T13:25:21.158Z,25.35
2018-04-24T13:30:22.695Z,24.13
2018-04-24T13:32:50.171Z,23.70
2018-04-24T13:35:17.725Z,24.37
2018-04-24T13:37:45.350Z,24.90
2018-04-24T13:40:12.840Z,25.08
2018-04-24T13:42:40.317Z,24.36
2018-04-24T13:45:07.807Z,24.20
2018-04-24T13:47:35.261Z,25.17
2018-04-24T13:50:02.737Z,26.08
2018-04-24T13:52:30.249Z,26.89
2018-04-24T13:54:57.738Z,26.20
2018-04-24T13:57:25.207Z,26.64
2018-04-24T13:59:52.697Z,23.95
2018-04-24T14:02:20.153Z,22.95
2018-04-24T14:04:47.628Z,23.40
2018-04-24T14:07:15.140Z,21.57
2018-04-24T14:09:42.672Z,22.24
2018-04-24T14:12:10.168Z,20.30
2018-04-24T14:14:37.651Z,19.04
2018-04-24T14:17:05.138Z,20.00
2018-04-24T14:19:32.621Z,19.71
2018-04-24T14:22:00.098Z,18.40
2018-04-24T14:24:27.785Z,17.23
2018-04-24T14:27:00.878Z,17.51
2018-04-24T14:29:29.028Z,17.89
2018-04-24T14:31:56.518Z,19.42
2018-04-24T14:34:24.064Z,19.94
2018-04-24T14:36:51.549Z,18.32
2018-04-24T14:39:18.990Z,16.99
2018-04-24T14:41:46.468Z,15.76
2018-04-24T14:44:14.066Z,16.48
2018-04-24T14:46:41.544Z,17.13
2018-04-24T14:49:09.030Z,17.26
2018-04-24T14:51:36.571Z,16.18
2018-04-24T14:54:04.064Z,16.57
2018-04-24T14:56:31.567Z,14.53
2018-04-24T14:58:59.130Z,14.75
2018-04-24T15:01:26.623Z,15.15
2018-04-24T15:03:54.087Z,13.53
2018-04-24T15:06:21.569Z,14.38
2018-04-24T15:08:49.108Z,13.55
2018-04-24T15:11:16.568Z,14.21
2018-04-24T15:13:44.116Z,14.43
2018-04-24T15:16:11.608Z,17.30
2018-04-24T15:18:39.575Z,20.79
2018-04-24T15:21:07.047Z,20.62
2018-04-24T15:23:34.547Z,19.09
2018-04-24T15:26:02.087Z,18.57
2018-04-24T15:28:29.557Z,18.55
2018-04-24T15:30:57.034Z,21.03
2018-04-24T15:33:24.500Z,20.31
2018-04-24T15:35:51.974Z,19.38
2018-04-24T15:38:19.622Z,16.23
2018-04-24T15:40:47.107Z,15.74
2018-04-24T15:43:14.585Z,15.78
2018-04-24T15:45:42.055Z,14.90
2018-04-24T15:48:09.529Z,17.56
2018-04-24T15:50:37.024Z,18.91
2018-04-24T15:53:04.710Z,18.35
2018-04-24T15:55:32.301Z,17.17
2018-04-24T15:57:59.769Z,17.67
2018-04-24T16:00:27.431Z,17.23
2018-04-24T16:02:54.998Z,17.95
2018-04-24T16:05:22.402Z,19.46
2018-04-24T16:07:49.928Z,20.81
2018-04-24T16:10:17.398Z,19.31
2018-04-24T16:12:45.027Z,17.80
2018-04-24T16:15:12.656Z,20.12
2018-04-24T16:17:40.622Z,20.01
2018-04-24T16:20:08.144Z,18.88
2018-04-24T16:22:35.623Z,17.96
2018-04-24T16:25:03.110Z,21.04
2018-04-24T16:27:30.703Z,21.42
2018-04-24T16:29:58.249Z,20.65
2018-04-24T16:32:25.691Z,19.71
2018-04-24T16:34:53.318Z,20.34
2018-04-24T16:37:20.801Z,21.10
2018-04-24T16:39:48.300Z,22.42
2018-04-24T16:42:15.987Z,24.13
2018-04-24T16:44:43.504Z,23.08
2018-04-24T16:47:10.980Z,23.71
2018-04-24T16:49:38.495Z,24.68
2018-04-24T16:52:05.967Z,24.00
2018-04-24T16:54:33.635Z,24.21
2018-04-24T16:57:01.104Z,25.26
2018-04-24T16:59:28.581Z,25.42
2018-04-24T17:01:56.054Z,26.58
2018-04-24T17:04:23.531Z,25.68
2018-04-24T17:06:51.137Z,25.95
2018-04-24T17:09:18.604Z,24.09
2018-04-24T17:11:46.087Z,25.27
2018-04-24T17:14:13.654Z,26.05
2018-04-24T17:16:41.158Z,27.63
2018-04-24T17:19:08.636Z,27.91
2018-04-24T17:21:36.107Z,29.46
2018-04-24T17:24:03.644Z,31.78
2018-04-24T17:26:31.234Z,30.85
2018-04-24T17:28:58.776Z,32.23
2018-04-24T17:31:26.271Z,33.67
2018-04-24T17:33:53.810Z,33.59
2018-04-24T17:36:21.390Z,36.90
2018-04-24T17:38:48.936Z,36.08
2018-04-24T17:41:16.418Z,35.25
2018-04-24T17:43:43.878Z,36.82
2018-04-24T17:46:11.388Z,36.83
2018-04-24T17:48:39.460Z,40.73
2018-04-24T17:51:07.205Z,37.80
2018-04-24T17:53:34.720Z,38.09
2018-04-24T17:56:02.197Z,37.10
2018-04-24T17:58:29.755Z,39.11
2018-04-24T18:00:57.222Z,40.55
2018-04-24T18:03:24.726Z,41.75
2018-04-24T18:05:52.265Z,42.88
2018-04-24T18:08:19.718Z,44.04
2018-04-24T18:10:47.231Z,41.88
2018-04-24T18:13:14.814Z,43.30
2018-04-24T18:15:42.319Z,43.28
2018-04-24T18:18:09.826Z,44.27
2018-04-24T18:20:37.529Z,44.40
2018-04-24T18:23:05.675Z,45.39
2018-04-24T18:25:33.216Z,46.03
2018-04-24T18:28:00.687Z,45.72
2018-04-24T18:30:28.160Z,45.18
2018-04-24T18:32:55.666Z,47.01
2018-04-24T18:35:23.318Z,46.20
2018-04-24T18:37:57.589Z,48.03
2018-04-24T18:40:25.131Z,47.38
2018-04-24T18:42:52.879Z,45.82
2018-04-24T18:45:20.484Z,49.44
2018-04-24T18:47:49.129Z,47.26
2018-04-24T18:50:17.978Z,47.68
2018-04-24T18:52:45.662Z,50.84
2018-04-24T18:55:13.240Z,45.94
2018-04-24T18:57:40.983Z,47.60
2018-04-24T19:00:08.492Z,48.33
2018-04-24T19:02:35.978Z,47.88
2018-04-24T19:05:03.815Z,50.73
2018-04-24T19:07:32.045Z,51.24
2018-04-24T19:09:59.681Z,51.54
2018-04-24T19:12:27.475Z,49.68
2018-04-24T19:14:55.441Z,47.67
2018-04-24T19:17:23.073Z,51.36
2018-04-24T19:19:50.994Z,48.33
2018-04-24T19:22:18.554Z,48.62
2018-04-24T19:24:51.821Z,49.19
2018-04-24T19:27:19.322Z,49.95
2018-04-24T19:29:47.205Z,51.14
2018-04-24T19:32:20.697Z,49.71
2018-04-24T19:34:48.252Z,52.61
2018-04-24T19:37:15.856Z,52.48
2018-04-24T19:39:49.195Z,51.17
2018-04-24T19:42:16.821Z,52.31
2018-04-24T19:44:44.383Z,51.81
2018-04-24T19:47:11.886Z,50.46
2018-04-24T19:49:45.263Z,51.04
2018-04-24T19:52:12.885Z,51.77
2018-04-24T19:54:46.058Z,53.87
2018-04-24T19:57:13.976Z,50.40
2018-04-24T19:59:41.699Z,51.57
2018-04-24T20:02:09.421Z,52.02
2018-04-24T20:04:36.976Z,52.17
2018-04-24T20:07:04.671Z,52.86
2018-04-24T20:09:32.707Z,56.21
2018-04-24T20:12:00.227Z,56.24
2018-04-24T20:14:27.890Z,54.23
2018-04-24T20:16:55.465Z,54.46
2018-04-24T20:19:23.004Z,55.97
2018-04-24T20:21:50.669Z,54.16
2018-04-24T20:24:19.879Z,57.38
2018-04-24T20:26:47.434Z,57.40
2018-04-24T20:29:14.976Z,56.54
2018-04-24T20:31:42.455Z,55.80
2018-04-24T20:34:09.988Z,56.46
2018-04-24T20:36:38.883Z,54.87
2018-04-24T20:39:06.493Z,57.21
2018-04-24T20:41:34.198Z,59.02
2018-04-24T20:44:01.894Z,59.44
2018-04-24T20:46:29.586Z,59.11
2018-04-24T20:48:57.602Z,58.61
2018-04-24T20:51:25.215Z,58.99
2018-04-24T20:53:52.717Z,59.75
2018-04-24T20:56:20.271Z,60.20
2018-04-24T20:58:47.796Z,57.91
2018-04-24T21:01:15.299Z,58.89
2018-04-24T21:03:42.894Z,59.68
2018-04-24T21:06:10.473Z,60.37
2018-04-24T21:08:39.059Z,59.79
2018-04-24T21:11:06.559Z,59.66
2018-04-24T21:13:34.049Z,58.63
2018-04-24T21:16:01.752Z,57.94
2018-04-24T21:18:29.387Z,60.19
2018-04-24T21:20:57.003Z,60.05
2018-04-24T21:23:24.521Z,58.26
2018-04-24T21:25:52.098Z,59.36
2018-04-24T21:28:19.800Z,59.49
2018-04-24T21:30:47.366Z,60.54
2018-04-24T21:33:14.858Z,59.52
2018-04-24T21:35:42.360Z,60.88
2018-04-24T21:38:09.848Z,60.11
2018-04-24T21:40:37.337Z,62.05
2018-04-24T21:43:04.917Z,63.60
2018-04-24T21:45:32.710Z,60.89
2018-04-24T21:48:00.179Z,63.31
2018-04-24T21:50:27.666Z,62.65
2018-04-24T21:52:55.147Z,62.74
2018-04-24T21:55:22.651Z,63.24
2018-04-24T21:57:50.135Z,64.00
2018-04-24T22:00:17.590Z,61.41
2018-04-24T22:02:45.138Z,60.87
2018-04-24T22:05:12.632Z,62.05
2018-04-24T22:07:40.104Z,60.93
2018-04-24T22:10:07.577Z,64.61
2018-04-24T22:12:35.061Z,61.69
2018-04-24T22:15:02.530Z,62.97
2018-04-24T22:17:30.018Z,64.13
2018-04-24T22:19:57.507Z,62.13
2018-04-24T22:22:24.978Z,62.89
2018-04-24T22:24:52.489Z,62.09
2018-04-24T22:27:19.970Z,62.17
2018-04-24T22:29:47.445Z,62.69
2018-04-24T22:32:14.929Z,61.27
2018-04-24T22:34:42.419Z,64.27
2018-04-24T22:37:09.900Z,61.37
2018-04-24T22:39:37.440Z,62.25
2018-04-24T22:42:04.913Z,64.36
2018-04-24T22:44:32.384Z,64.91
2018-04-24T22:46:59.860Z,64.49
2018-04-24T22:49:27.322Z,63.77
2018-04-24T22:51:54.824Z,67.42
2018-04-24T22:54:22.301Z,66.83
2018-04-24T22:56:49.753Z,67.45
2018-04-24T22:59:17.240Z,66.30
2018-04-24T23:01:44.762Z,67.26
2018-04-24T23:04:12.231Z,67.08
2018-04-24T23:06:39.729Z,65.16
2018-04-24T23:09:07.213Z,64.62
2018-04-24T23:11:46.482Z,65.73
2018-04-24T23:14:25.985Z,68.03
2018-04-24T23:17:05.347Z,65.89
2018-04-24T23:19:44.680Z,67.79
2018-04-24T23:25:08.372Z,66.04
2018-04-24T23:27:35.851Z,65.50
2018-04-24T23:30:03.337Z,64.99
2018-04-24T23:32:30.828Z,65.44
2018-04-24T23:34:58.316Z,65.67
2018-04-24T23:37:25.819Z,66.58
2018-04-24T23:39:53.414Z,66.73
2018-04-24T23:42:20.871Z,66.12
2018-04-24T23:47:09.468Z,65.91
2018-04-24T23:49:36.956Z,65.43
2018-04-24T23:52:04.414Z,67.92
2018-04-24T23:54:31.899Z,67.66
2018-04-24T23:56:59.411Z,66.41
2018-04-24T23:59:27.008Z,65.29
